Tredyffrin, Pennsylvania
Current Conditions -  °F | °C
As of 12:15 AM on Thursday 23 Oct 2014 (Local Time) from KLOM Reporting Station
Overcast Overcast  
Wind Chill: 52°   Ceiling: 2000
Heat Index: 52°   Visibility: 5mi
Dew Point: 50°   Wind: 7mph
Humidity: 94%   Direction: 310°NW
Pressure: 29.79"   Gusts: NA
Location:  40.0321°N, 75.449°W
Report Text: KLOM 230415Z AUTO 31006KT 5SM SCT012 BKN020 OVC034 11/10 A2979 RMK AO1 P0001
Loading
Personal Weather Stations






























Interactive Weather Map
Tropical Storm Tracking
New forecast layout! Learn more

10-Day Weather Forecast

Advertisements
Track Severe Weather on mobile